sensor_id;sensor_type;location;lat;lon;timestamp;pressure;altitude;pressure_sealevel;temperature;humidity
49455;BME280;69710;64.656;21.218;2023-08-30T00:00:30;100713.05;;;11.92;100.00
49455;BME280;69710;64.656;21.218;2023-08-30T00:02:58;100709.85;;;12.03;100.00
49455;BME280;69710;64.656;21.218;2023-08-30T00:05:25;100707.50;;;11.93;100.00
49455;BME280;69710;64.656;21.218;2023-08-30T00:07:53;100706.47;;;11.80;100.00
49455;BME280;69710;64.656;21.218;2023-08-30T00:10:21;100705.31;;;11.90;100.00
49455;BME280;69710;64.656;21.218;2023-08-30T00:12:49;100708.29;;;11.69;100.00
49455;BME280;69710;64.656;21.218;2023-08-30T00:15:17;100706.61;;;11.87;100.00
49455;BME280;69710;64.656;21.218;2023-08-30T00:17:45;100705.72;;;11.55;100.00
49455;BME280;69710;64.656;21.218;2023-08-30T00:20:13;100703.92;;;11.64;100.00
49455;BME280;69710;64.656;21.218;2023-08-30T00:22:41;100701.83;;;11.81;100.00
49455;BME280;69710;64.656;21.218;2023-08-30T00:25:08;100700.50;;;11.52;100.00
49455;BME280;69710;64.656;21.218;2023-08-30T00:27:36;100699.77;;;11.62;100.00
49455;BME280;69710;64.656;21.218;2023-08-30T00:30:04;100705.33;;;11.63;100.00
49455;BME280;69710;64.656;21.218;2023-08-30T00:32:32;100708.07;;;11.52;100.00
49455;BME280;69710;64.656;21.218;2023-08-30T00:34:59;100708.47;;;11.53;100.00
49455;BME280;69710;64.656;21.218;2023-08-30T00:37:26;100707.87;;;11.66;100.00
49455;BME280;69710;64.656;21.218;2023-08-30T00:39:54;100705.62;;;11.32;100.00
49455;BME280;69710;64.656;21.218;2023-08-30T00:42:22;100706.77;;;11.48;100.00
49455;BME280;69710;64.656;21.218;2023-08-30T00:44:50;100707.84;;;11.51;100.00
49455;BME280;69710;64.656;21.218;2023-08-30T00:47:17;100712.63;;;11.72;100.00
49455;BME280;69710;64.656;21.218;2023-08-30T00:49:46;100714.67;;;11.49;100.00
49455;BME280;69710;64.656;21.218;2023-08-30T00:52:14;100714.76;;;11.41;100.00
49455;BME280;69710;64.656;21.218;2023-08-30T00:54:42;100718.40;;;11.26;100.00
49455;BME280;69710;64.656;21.218;2023-08-30T00:57:10;100720.33;;;11.23;100.00
49455;BME280;69710;64.656;21.218;2023-08-30T00:59:38;100723.85;;;11.36;100.00
49455;BME280;69710;64.656;21.218;2023-08-30T01:02:07;100728.52;;;11.49;100.00
49455;BME280;69710;64.656;21.218;2023-08-30T01:04:34;100731.29;;;11.07;100.00
49455;BME280;69710;64.656;21.218;2023-08-30T01:07:02;100727.80;;;11.36;100.00
49455;BME280;69710;64.656;21.218;2023-08-30T01:09:30;100731.50;;;11.07;100.00
49455;BME280;69710;64.656;21.218;2023-08-30T01:12:02;100728.75;;;10.88;100.00
49455;BME280;69710;64.656;21.218;2023-08-30T01:14:48;100727.20;;;11.44;100.00
49455;BME280;69710;64.656;21.218;2023-08-30T01:17:21;100725.46;;;11.24;100.00
49455;BME280;69710;64.656;21.218;2023-08-30T01:19:55;100728.28;;;11.36;100.00
49455;BME280;69710;64.656;21.218;2023-08-30T01:22:37;100733.53;;;11.06;100.00
49455;BME280;69710;64.656;21.218;2023-08-30T01:25:17;100734.34;;;10.93;100.00
49455;BME280;69710;64.656;21.218;2023-08-30T01:27:48;100733.21;;;11.36;100.00
49455;BME280;69710;64.656;21.218;2023-08-30T01:30:18;100732.58;;;11.36;100.00
49455;BME280;69710;64.656;21.218;2023-08-30T01:32:48;100732.35;;;11.39;100.00
49455;BME280;69710;64.656;21.218;2023-08-30T01:35:17;100729.34;;;11.20;100.00
49455;BME280;69710;64.656;21.218;2023-08-30T01:37:46;100725.46;;;10.90;100.00
49455;BME280;69710;64.656;21.218;2023-08-30T01:40:15;100722.17;;;11.14;100.00
49455;BME280;69710;64.656;21.218;2023-08-30T01:42:45;100720.39;;;10.87;100.00
49455;BME280;69710;64.656;21.218;2023-08-30T01:45:14;100725.16;;;11.10;100.00
49455;BME280;69710;64.656;21.218;2023-08-30T01:47:43;100732.05;;;11.00;100.00
49455;BME280;69710;64.656;21.218;2023-08-30T01:50:11;100739.87;;;11.10;100.00
49455;BME280;69710;64.656;21.218;2023-08-30T01:52:40;100736.95;;;10.99;100.00
49455;BME280;69710;64.656;21.218;2023-08-30T01:55:09;100732.51;;;10.92;100.00
49455;BME280;69710;64.656;21.218;2023-08-30T01:57:37;100733.61;;;11.01;100.00
49455;BME280;69710;64.656;21.218;2023-08-30T02:00:06;100738.45;;;11.04;100.00
49455;BME280;69710;64.656;21.218;2023-08-30T02:02:34;100741.52;;;11.04;100.00
49455;BME280;69710;64.656;21.218;2023-08-30T02:05:02;100744.24;;;10.97;100.00
49455;BME280;69710;64.656;21.218;2023-08-30T02:07:36;100744.01;;;10.86;100.00
49455;BME280;69710;64.656;21.218;2023-08-30T02:10:08;100746.32;;;10.99;100.00
49455;BME280;69710;64.656;21.218;2023-08-30T02:12:44;100744.46;;;11.00;100.00
49455;BME280;69710;64.656;21.218;2023-08-30T02:15:14;100747.05;;;10.89;100.00
49455;BME280;69710;64.656;21.218;2023-08-30T02:17:44;100747.25;;;10.84;100.00
49455;BME280;69710;64.656;21.218;2023-08-30T02:20:12;100748.38;;;10.81;100.00
49455;BME280;69710;64.656;21.218;2023-08-30T02:22:40;100746.81;;;10.85;100.00
49455;BME280;69710;64.656;21.218;2023-08-30T02:25:09;100746.84;;;10.61;100.00
49455;BME280;69710;64.656;21.218;2023-08-30T02:27:37;100746.51;;;10.72;100.00
49455;BME280;69710;64.656;21.218;2023-08-30T02:30:06;100747.85;;;10.58;100.00
49455;BME280;69710;64.656;21.218;2023-08-30T02:32:34;100747.84;;;10.50;100.00
49455;BME280;69710;64.656;21.218;2023-08-30T02:35:02;100752.74;;;10.63;100.00
49455;BME280;69710;64.656;21.218;2023-08-30T02:37:30;100757.33;;;10.73;100.00
49455;BME280;69710;64.656;21.218;2023-08-30T02:39:58;100761.21;;;10.57;100.00
49455;BME280;69710;64.656;21.218;2023-08-30T02:42:26;100762.15;;;10.63;100.00
49455;BME280;69710;64.656;21.218;2023-08-30T02:44:54;100764.36;;;10.77;100.00
49455;BME280;69710;64.656;21.218;2023-08-30T02:47:22;100759.83;;;10.54;100.00
49455;BME280;69710;64.656;21.218;2023-08-30T02:49:50;100755.10;;;10.59;100.00
49455;BME280;69710;64.656;21.218;2023-08-30T02:52:18;100751.50;;;10.84;100.00
49455;BME280;69710;64.656;21.218;2023-08-30T02:54:46;100752.63;;;11.11;100.00
49455;BME280;69710;64.656;21.218;2023-08-30T02:57:13;100754.11;;;11.12;100.00
49455;BME280;69710;64.656;21.218;2023-08-30T02:59:41;100758.24;;;10.94;100.00
49455;BME280;69710;64.656;21.218;2023-08-30T03:02:08;100756.31;;;10.96;100.00
49455;BME280;69710;64.656;21.218;2023-08-30T03:04:35;100753.81;;;11.01;100.00
49455;BME280;69710;64.656;21.218;2023-08-30T03:07:03;100753.63;;;11.13;100.00
49455;BME280;69710;64.656;21.218;2023-08-30T03:09:31;100750.03;;;10.88;100.00
49455;BME280;69710;64.656;21.218;2023-08-30T03:11:58;100748.52;;;11.26;100.00
49455;BME280;69710;64.656;21.218;2023-08-30T03:14:27;100753.70;;;10.96;100.00
49455;BME280;69710;64.656;21.218;2023-08-30T03:16:54;100756.50;;;11.26;100.00
49455;BME280;69710;64.656;21.218;2023-08-30T03:19:21;100762.50;;;11.37;100.00
49455;BME280;69710;64.656;21.218;2023-08-30T03:21:49;100767.45;;;11.37;100.00
49455;BME280;69710;64.656;21.218;2023-08-30T03:24:17;100767.67;;;11.48;100.00
49455;BME280;69710;64.656;21.218;2023-08-30T03:26:45;100768.15;;;11.65;100.00
49455;BME280;69710;64.656;21.218;2023-08-30T03:29:12;100770.94;;;11.68;100.00
49455;BME280;69710;64.656;21.218;2023-08-30T03:31:40;100773.62;;;11.32;100.00
49455;BME280;69710;64.656;21.218;2023-08-30T03:34:08;100780.55;;;11.90;100.00
49455;BME280;69710;64.656;21.218;2023-08-30T03:36:35;100778.79;;;11.99;100.00
49455;BME280;69710;64.656;21.218;2023-08-30T03:39:02;100776.72;;;12.28;100.00
49455;BME280;69710;64.656;21.218;2023-08-30T03:41:30;100782.29;;;11.73;100.00
49455;BME280;69710;64.656;21.218;2023-08-30T03:43:58;100782.08;;;11.65;100.00
49455;BME280;69710;64.656;21.218;2023-08-30T03:46:25;100788.29;;;12.64;100.00
49455;BME280;69710;64.656;21.218;2023-08-30T03:48:53;100791.47;;;12.20;100.00
49455;BME280;69710;64.656;21.218;2023-08-30T03:51:21;100791.39;;;11.90;100.00
49455;BME280;69710;64.656;21.218;2023-08-30T03:53:48;100789.10;;;11.78;100.00
49455;BME280;69710;64.656;21.218;2023-08-30T03:56:16;100789.75;;;11.89;100.00
49455;BME280;69710;64.656;21.218;2023-08-30T03:58:45;100786.18;;;12.34;100.00
49455;BME280;69710;64.656;21.218;2023-08-30T04:01:12;100791.12;;;12.00;100.00
49455;BME280;69710;64.656;21.218;2023-08-30T04:03:40;100792.80;;;12.20;100.00
49455;BME280;69710;64.656;21.218;2023-08-30T04:06:08;100794.13;;;12.09;100.00
49455;BME280;69710;64.656;21.218;2023-08-30T04:08:36;100793.93;;;11.76;100.00
49455;BME280;69710;64.656;21.218;2023-08-30T04:11:04;100798.33;;;11.90;100.00
49455;BME280;69710;64.656;21.218;2023-08-30T04:13:31;100801.72;;;12.09;100.00
49455;BME280;69710;64.656;21.218;2023-08-30T04:15:59;100806.95;;;12.00;100.00
49455;BME280;69710;64.656;21.218;2023-08-30T04:18:26;100806.24;;;12.11;100.00
49455;BME280;69710;64.656;21.218;2023-08-30T04:20:54;100805.70;;;11.84;100.00
49455;BME280;69710;64.656;21.218;2023-08-30T04:23:21;100803.22;;;12.10;100.00
49455;BME280;69710;64.656;21.218;2023-08-30T04:25:49;100801.43;;;11.84;100.00
49455;BME280;69710;64.656;21.218;2023-08-30T04:28:17;100803.04;;;12.35;100.00
49455;BME280;69710;64.656;21.218;2023-08-30T04:30:44;100807.61;;;12.24;100.00
49455;BME280;69710;64.656;21.218;2023-08-30T04:33:12;100812.23;;;12.19;100.00
49455;BME280;69710;64.656;21.218;2023-08-30T04:35:40;100815.07;;;11.83;100.00
49455;BME280;69710;64.656;21.218;2023-08-30T04:38:08;100814.44;;;12.16;100.00
49455;BME280;69710;64.656;21.218;2023-08-30T04:40:36;100811.13;;;12.16;100.00
49455;BME280;69710;64.656;21.218;2023-08-30T04:43:03;100813.62;;;11.96;100.00
49455;BME280;69710;64.656;21.218;2023-08-30T04:45:31;100806.72;;;12.48;100.00
49455;BME280;69710;64.656;21.218;2023-08-30T04:47:58;100805.56;;;12.37;100.00
49455;BME280;69710;64.656;21.218;2023-08-30T04:50:27;100806.34;;;12.60;100.00
49455;BME280;69710;64.656;21.218;2023-08-30T04:52:55;100807.16;;;12.48;100.00
49455;BME280;69710;64.656;21.218;2023-08-30T04:55:24;100802.70;;;12.87;100.00
49455;BME280;69710;64.656;21.218;2023-08-30T04:57:52;100798.39;;;12.65;100.00
49455;BME280;69710;64.656;21.218;2023-08-30T05:00:20;100793.53;;;12.81;100.00
49455;BME280;69710;64.656;21.218;2023-08-30T05:02:48;100791.58;;;12.69;100.00
49455;BME280;69710;64.656;21.218;2023-08-30T05:05:17;100788.89;;;13.06;100.00
49455;BME280;69710;64.656;21.218;2023-08-30T05:07:44;100786.01;;;12.85;100.00
49455;BME280;69710;64.656;21.218;2023-08-30T05:10:12;100784.08;;;12.52;100.00
49455;BME280;69710;64.656;21.218;2023-08-30T05:12:41;100781.79;;;13.09;100.00
49455;BME280;69710;64.656;21.218;2023-08-30T05:15:09;100780.05;;;12.68;100.00
49455;BME280;69710;64.656;21.218;2023-08-30T05:17:37;100784.16;;;13.00;100.00
49455;BME280;69710;64.656;21.218;2023-08-30T05:20:05;100776.70;;;12.75;100.00
49455;BME280;69710;64.656;21.218;2023-08-30T05:22:33;100773.15;;;13.14;100.00
49455;BME280;69710;64.656;21.218;2023-08-30T05:25:01;100769.69;;;12.81;100.00
49455;BME280;69710;64.656;21.218;2023-08-30T05:27:28;100767.02;;;13.22;100.00
49455;BME280;69710;64.656;21.218;2023-08-30T05:29:56;100770.75;;;12.81;100.00
49455;BME280;69710;64.656;21.218;2023-08-30T05:32:24;100769.01;;;13.11;100.00
49455;BME280;69710;64.656;21.218;2023-08-30T05:34:52;100769.19;;;13.03;100.00
49455;BME280;69710;64.656;21.218;2023-08-30T05:37:20;100768.43;;;13.29;100.00
49455;BME280;69710;64.656;21.218;2023-08-30T05:39:49;100777.38;;;13.59;100.00
49455;BME280;69710;64.656;21.218;2023-08-30T05:42:16;100781.66;;;13.53;100.00
49455;BME280;69710;64.656;21.218;2023-08-30T05:44:44;100781.23;;;13.37;100.00
49455;BME280;69710;64.656;21.218;2023-08-30T05:47:12;100781.14;;;13.73;100.00
49455;BME280;69710;64.656;21.218;2023-08-30T05:49:40;100779.75;;;13.48;100.00
49455;BME280;69710;64.656;21.218;2023-08-30T05:52:15;100780.26;;;13.49;100.00
49455;BME280;69710;64.656;21.218;2023-08-30T05:54:43;100782.59;;;13.45;100.00
49455;BME280;69710;64.656;21.218;2023-08-30T05:57:11;100788.98;;;13.64;100.00
49455;BME280;69710;64.656;21.218;2023-08-30T05:59:38;100794.10;;;13.77;100.00
49455;BME280;69710;64.656;21.218;2023-08-30T06:02:06;100797.11;;;13.70;100.00
49455;BME280;69710;64.656;21.218;2023-08-30T06:04:34;100796.21;;;13.67;100.00
49455;BME280;69710;64.656;21.218;2023-08-30T06:07:02;100798.56;;;13.58;100.00
49455;BME280;69710;64.656;21.218;2023-08-30T06:09:30;100796.46;;;13.45;100.00
49455;BME280;69710;64.656;21.218;2023-08-30T06:11:58;100800.07;;;13.53;100.00
49455;BME280;69710;64.656;21.218;2023-08-30T06:14:26;100805.39;;;14.00;100.00
49455;BME280;69710;64.656;21.218;2023-08-30T06:16:54;100800.25;;;14.07;100.00
49455;BME280;69710;64.656;21.218;2023-08-30T06:19:22;100801.05;;;13.64;100.00
49455;BME280;69710;64.656;21.218;2023-08-30T06:21:49;100797.09;;;13.93;100.00
49455;BME280;69710;64.656;21.218;2023-08-30T06:24:17;100783.17;;;14.36;100.00
49455;BME280;69710;64.656;21.218;2023-08-30T06:26:44;100776.43;;;14.81;100.00
49455;BME280;69710;64.656;21.218;2023-08-30T06:29:12;100776.63;;;14.46;100.00
49455;BME280;69710;64.656;21.218;2023-08-30T06:31:39;100781.91;;;14.36;100.00
49455;BME280;69710;64.656;21.218;2023-08-30T06:34:07;100783.44;;;14.20;100.00
49455;BME280;69710;64.656;21.218;2023-08-30T06:36:35;100790.11;;;14.45;100.00
49455;BME280;69710;64.656;21.218;2023-08-30T06:39:02;100797.18;;;14.50;100.00
49455;BME280;69710;64.656;21.218;2023-08-30T06:41:30;100798.14;;;14.47;100.00
49455;BME280;69710;64.656;21.218;2023-08-30T06:43:58;100795.02;;;14.49;100.00
49455;BME280;69710;64.656;21.218;2023-08-30T06:46:26;100800.19;;;14.70;100.00
49455;BME280;69710;64.656;21.218;2023-08-30T06:48:54;100807.98;;;14.71;100.00
49455;BME280;69710;64.656;21.218;2023-08-30T06:51:22;100816.36;;;14.56;100.00
49455;BME280;69710;64.656;21.218;2023-08-30T06:53:51;100821.29;;;14.70;100.00
49455;BME280;69710;64.656;21.218;2023-08-30T06:56:18;100827.64;;;15.00;100.00
49455;BME280;69710;64.656;21.218;2023-08-30T06:58:46;100834.65;;;14.86;100.00
49455;BME280;69710;64.656;21.218;2023-08-30T07:01:14;100839.34;;;14.97;100.00
49455;BME280;69710;64.656;21.218;2023-08-30T07:03:42;100839.75;;;15.15;100.00
49455;BME280;69710;64.656;21.218;2023-08-30T07:06:10;100838.40;;;14.89;100.00
49455;BME280;69710;64.656;21.218;2023-08-30T07:08:38;100843.44;;;15.11;100.00
49455;BME280;69710;64.656;21.218;2023-08-30T07:11:06;100853.81;;;15.11;100.00
49455;BME280;69710;64.656;21.218;2023-08-30T07:13:34;100855.49;;;14.77;100.00
49455;BME280;69710;64.656;21.218;2023-08-30T07:16:02;100862.42;;;14.99;100.00
49455;BME280;69710;64.656;21.218;2023-08-30T07:18:30;100866.55;;;15.11;100.00
49455;BME280;69710;64.656;21.218;2023-08-30T07:20:59;100868.40;;;14.74;100.00
49455;BME280;69710;64.656;21.218;2023-08-30T07:23:26;100871.86;;;14.67;100.00
49455;BME280;69710;64.656;21.218;2023-08-30T07:25:54;100870.69;;;15.25;100.00
49455;BME280;69710;64.656;21.218;2023-08-30T07:28:23;100870.27;;;15.02;100.00
49455;BME280;69710;64.656;21.218;2023-08-30T07:30:51;100869.58;;;14.34;100.00
49455;BME280;69710;64.656;21.218;2023-08-30T07:33:18;100867.76;;;14.16;100.00
49455;BME280;69710;64.656;21.218;2023-08-30T07:35:46;100855.15;;;13.51;100.00
49455;BME280;69710;64.656;21.218;2023-08-30T07:38:15;100846.28;;;13.90;100.00
49455;BME280;69710;64.656;21.218;2023-08-30T07:40:43;100843.55;;;14.53;100.00
49455;BME280;69710;64.656;21.218;2023-08-30T07:43:11;100841.43;;;13.31;100.00
49455;BME280;69710;64.656;21.218;2023-08-30T07:45:39;100837.31;;;12.47;100.00
49455;BME280;69710;64.656;21.218;2023-08-30T07:48:07;100828.61;;;12.07;100.00
49455;BME280;69710;64.656;21.218;2023-08-30T07:50:35;100830.99;;;11.87;100.00
49455;BME280;69710;64.656;21.218;2023-08-30T07:53:03;100828.32;;;12.29;100.00
49455;BME280;69710;64.656;21.218;2023-08-30T07:55:31;100831.18;;;12.35;100.00
49455;BME280;69710;64.656;21.218;2023-08-30T07:57:59;100833.65;;;12.29;100.00
49455;BME280;69710;64.656;21.218;2023-08-30T08:00:27;100837.76;;;12.57;100.00
49455;BME280;69710;64.656;21.218;2023-08-30T08:02:56;100838.52;;;12.21;100.00
49455;BME280;69710;64.656;21.218;2023-08-30T08:05:24;100839.82;;;12.41;100.00
49455;BME280;69710;64.656;21.218;2023-08-30T08:07:52;100836.22;;;12.33;100.00
49455;BME280;69710;64.656;21.218;2023-08-30T08:10:20;100837.08;;;12.29;100.00
49455;BME280;69710;64.656;21.218;2023-08-30T08:12:48;100837.80;;;12.66;100.00
49455;BME280;69710;64.656;21.218;2023-08-30T08:15:16;100837.38;;;12.70;100.00
49455;BME280;69710;64.656;21.218;2023-08-30T08:17:44;100836.51;;;12.94;100.00
49455;BME280;69710;64.656;21.218;2023-08-30T08:20:12;100832.78;;;12.86;100.00
49455;BME280;69710;64.656;21.218;2023-08-30T08:22:40;100832.85;;;12.84;100.00
49455;BME280;69710;64.656;21.218;2023-08-30T08:25:08;100836.91;;;12.57;100.00
49455;BME280;69710;64.656;21.218;2023-08-30T08:27:36;100839.25;;;12.30;100.00
49455;BME280;69710;64.656;21.218;2023-08-30T08:30:05;100837.64;;;12.49;100.00
49455;BME280;69710;64.656;21.218;2023-08-30T08:32:33;100834.13;;;12.67;100.00
49455;BME280;69710;64.656;21.218;2023-08-30T08:35:02;100836.45;;;13.98;100.00
49455;BME280;69710;64.656;21.218;2023-08-30T08:37:30;100845.25;;;15.65;100.00
49455;BME280;69710;64.656;21.218;2023-08-30T08:39:58;100852.12;;;15.33;100.00
49455;BME280;69710;64.656;21.218;2023-08-30T08:42:26;100851.23;;;14.55;100.00
49455;BME280;69710;64.656;21.218;2023-08-30T08:44:54;100847.49;;;14.98;100.00
49455;BME280;69710;64.656;21.218;2023-08-30T08:47:24;100837.97;;;16.02;100.00
49455;BME280;69710;64.656;21.218;2023-08-30T08:49:52;100832.85;;;14.74;100.00
49455;BME280;69710;64.656;21.218;2023-08-30T08:52:20;100827.11;;;16.13;100.00
49455;BME280;69710;64.656;21.218;2023-08-30T08:54:49;100821.14;;;15.77;100.00
49455;BME280;69710;64.656;21.218;2023-08-30T08:57:17;100826.23;;;16.07;100.00
49455;BME280;69710;64.656;21.218;2023-08-30T08:59:46;100823.76;;;16.56;100.00
49455;BME280;69710;64.656;21.218;2023-08-30T09:02:14;100819.57;;;17.08;100.00
49455;BME280;69710;64.656;21.218;2023-08-30T09:04:42;100817.88;;;16.95;100.00
49455;BME280;69710;64.656;21.218;2023-08-30T09:07:10;100817.33;;;16.76;100.00
49455;BME280;69710;64.656;21.218;2023-08-30T09:09:38;100818.24;;;17.09;97.56
49455;BME280;69710;64.656;21.218;2023-08-30T09:12:07;100820.96;;;17.12;100.00
49455;BME280;69710;64.656;21.218;2023-08-30T09:14:34;100822.16;;;17.20;97.83
49455;BME280;69710;64.656;21.218;2023-08-30T09:17:03;100825.93;;;15.55;100.00
49455;BME280;69710;64.656;21.218;2023-08-30T09:19:30;100824.40;;;15.91;100.00
49455;BME280;69710;64.656;21.218;2023-08-30T09:21:59;100824.37;;;16.64;98.87
49455;BME280;69710;64.656;21.218;2023-08-30T09:24:38;100826.37;;;16.68;98.90
49455;BME280;69710;64.656;21.218;2023-08-30T09:27:06;100828.84;;;16.72;100.00
49455;BME280;69710;64.656;21.218;2023-08-30T09:29:34;100825.14;;;16.34;100.00
49455;BME280;69710;64.656;21.218;2023-08-30T09:32:02;100824.51;;;16.43;100.00
49455;BME280;69710;64.656;21.218;2023-08-30T09:34:30;100827.62;;;16.52;100.00
49455;BME280;69710;64.656;21.218;2023-08-30T09:36:58;100830.80;;;16.79;100.00
49455;BME280;69710;64.656;21.218;2023-08-30T09:39:26;100839.87;;;16.07;100.00
49455;BME280;69710;64.656;21.218;2023-08-30T09:41:54;100839.30;;;16.72;99.80
49455;BME280;69710;64.656;21.218;2023-08-30T09:44:23;100836.40;;;16.30;99.48
49455;BME280;69710;64.656;21.218;2023-08-30T09:46:51;100837.29;;;16.35;100.00
49455;BME280;69710;64.656;21.218;2023-08-30T09:49:20;100842.18;;;16.53;100.00
49455;BME280;69710;64.656;21.218;2023-08-30T09:51:49;100846.53;;;15.99;100.00
49455;BME280;69710;64.656;21.218;2023-08-30T09:54:19;100848.25;;;15.74;100.00
49455;BME280;69710;64.656;21.218;2023-08-30T09:56:47;100840.66;;;16.55;97.03
49455;BME280;69710;64.656;21.218;2023-08-30T09:59:15;100843.05;;;16.72;97.08
49455;BME280;69710;64.656;21.218;2023-08-30T10:01:43;100847.91;;;16.48;99.65
49455;BME280;69710;64.656;21.218;2023-08-30T10:04:11;100851.89;;;16.07;98.78
49455;BME280;69710;64.656;21.218;2023-08-30T10:06:39;100853.73;;;17.22;96.98
49455;BME280;69710;64.656;21.218;2023-08-30T10:09:09;100858.26;;;16.16;100.00
49455;BME280;69710;64.656;21.218;2023-08-30T10:11:38;100857.60;;;16.66;98.41
49455;BME280;69710;64.656;21.218;2023-08-30T10:14:06;100857.03;;;16.50;99.32
49455;BME280;69710;64.656;21.218;2023-08-30T10:16:42;100856.34;;;16.87;97.25
49455;BME280;69710;64.656;21.218;2023-08-30T10:19:15;100856.81;;;16.42;98.82
49455;BME280;69710;64.656;21.218;2023-08-30T10:21:44;100860.56;;;16.52;99.78
49455;BME280;69710;64.656;21.218;2023-08-30T10:24:16;100864.16;;;16.34;97.99
49455;BME280;69710;64.656;21.218;2023-08-30T10:26:44;100864.71;;;16.37;97.77
49455;BME280;69710;64.656;21.218;2023-08-30T10:29:14;100865.35;;;16.97;95.40
49455;BME280;69710;64.656;21.218;2023-08-30T10:31:43;100864.98;;;17.28;95.78
49455;BME280;69710;64.656;21.218;2023-08-30T10:34:14;100862.96;;;17.30;94.02
49455;BME280;69710;64.656;21.218;2023-08-30T10:36:42;100868.22;;;16.64;96.80
49455;BME280;69710;64.656;21.218;2023-08-30T10:39:12;100871.10;;;16.49;97.84
49455;BME280;69710;64.656;21.218;2023-08-30T10:41:55;100873.98;;;16.82;99.62
49455;BME280;69710;64.656;21.218;2023-08-30T10:44:23;100876.15;;;17.13;100.00
49455;BME280;69710;64.656;21.218;2023-08-30T10:46:53;100872.55;;;17.47;98.35
49455;BME280;69710;64.656;21.218;2023-08-30T10:49:21;100872.01;;;17.52;95.91
49455;BME280;69710;64.656;21.218;2023-08-30T10:51:55;100872.42;;;17.09;97.01
49455;BME280;69710;64.656;21.218;2023-08-30T10:54:24;100874.21;;;17.55;91.94
49455;BME280;69710;64.656;21.218;2023-08-30T10:56:57;100872.33;;;17.23;94.68
49455;BME280;69710;64.656;21.218;2023-08-30T10:59:25;100872.43;;;17.36;94.52
49455;BME280;69710;64.656;21.218;2023-08-30T11:01:53;100871.77;;;17.30;95.01
49455;BME280;69710;64.656;21.218;2023-08-30T11:04:21;100872.35;;;17.05;96.72
49455;BME280;69710;64.656;21.218;2023-08-30T11:06:50;100866.24;;;17.53;95.38
49455;BME280;69710;64.656;21.218;2023-08-30T11:09:20;100863.64;;;17.88;94.13
49455;BME280;69710;64.656;21.218;2023-08-30T11:11:49;100862.37;;;17.41;92.61
49455;BME280;69710;64.656;21.218;2023-08-30T11:14:18;100861.56;;;17.44;94.03
49455;BME280;69710;64.656;21.218;2023-08-30T11:16:46;100863.38;;;17.34;93.95
49455;BME280;69710;64.656;21.218;2023-08-30T11:19:14;100866.42;;;17.25;94.89
49455;BME280;69710;64.656;21.218;2023-08-30T11:21:44;100861.06;;;17.53;94.35
49455;BME280;69710;64.656;21.218;2023-08-30T11:24:13;100860.32;;;17.13;93.46
49455;BME280;69710;64.656;21.218;2023-08-30T11:26:41;100854.56;;;17.33;92.09
49455;BME280;69710;64.656;21.218;2023-08-30T11:29:09;100854.95;;;16.82;93.74
49455;BME280;69710;64.656;21.218;2023-08-30T11:31:37;100850.69;;;17.67;93.20
49455;BME280;69710;64.656;21.218;2023-08-30T11:34:05;100851.58;;;17.00;95.35
49455;BME280;69710;64.656;21.218;2023-08-30T11:36:35;100848.94;;;17.13;92.94
49455;BME280;69710;64.656;21.218;2023-08-30T11:39:03;100849.85;;;17.53;91.50
49455;BME280;69710;64.656;21.218;2023-08-30T11:41:31;100848.76;;;17.79;90.41
49455;BME280;69710;64.656;21.218;2023-08-30T11:44:05;100848.91;;;17.55;91.65
49455;BME280;69710;64.656;21.218;2023-08-30T11:46:32;100848.52;;;17.98;89.65
49455;BME280;69710;64.656;21.218;2023-08-30T11:49:01;100853.80;;;18.03;90.36
49455;BME280;69710;64.656;21.218;2023-08-30T11:51:29;100855.59;;;17.91;90.04
49455;BME280;69710;64.656;21.218;2023-08-30T11:53:58;100859.95;;;17.94;90.77
49455;BME280;69710;64.656;21.218;2023-08-30T11:56:26;100860.72;;;17.85;89.53
49455;BME280;69710;64.656;21.218;2023-08-30T11:58:54;100863.18;;;18.49;87.54
49455;BME280;69710;64.656;21.218;2023-08-30T12:01:22;100863.39;;;18.82;88.54
49455;BME280;69710;64.656;21.218;2023-08-30T12:03:50;100859.67;;;18.08;89.77
49455;BME280;69710;64.656;21.218;2023-08-30T12:06:18;100858.94;;;18.20;90.44
49455;BME280;69710;64.656;21.218;2023-08-30T12:08:46;100857.33;;;18.38;89.80
49455;BME280;69710;64.656;21.218;2023-08-30T12:11:19;100846.92;;;18.67;88.64
49455;BME280;69710;64.656;21.218;2023-08-30T12:13:46;100848.86;;;18.51;90.18
49455;BME280;69710;64.656;21.218;2023-08-30T12:16:16;100851.09;;;18.04;92.52
49455;BME280;69710;64.656;21.218;2023-08-30T12:18:46;100848.99;;;18.17;93.40
49455;BME280;69710;64.656;21.218;2023-08-30T12:21:14;100845.26;;;17.73;94.88
49455;BME280;69710;64.656;21.218;2023-08-30T12:23:42;100842.15;;;17.72;95.97
49455;BME280;69710;64.656;21.218;2023-08-30T12:26:11;100844.11;;;17.40;97.02
49455;BME280;69710;64.656;21.218;2023-08-30T12:28:41;100843.78;;;17.67;97.73
49455;BME280;69710;64.656;21.218;2023-08-30T12:31:09;100844.24;;;17.21;97.67
49455;BME280;69710;64.656;21.218;2023-08-30T12:33:37;100845.23;;;17.47;98.96
49455;BME280;69710;64.656;21.218;2023-08-30T12:36:05;100842.12;;;17.47;100.00
49455;BME280;69710;64.656;21.218;2023-08-30T12:38:33;100841.16;;;17.11;100.00